<?xml version="1.0" encoding="UTF-8" standalone="no" ?>
<gpx xmlns="http://www.topografix.com/GPX/1/1" xmlns:xsi="http://www.w3.org/2001/XMLSchema-instance" xsi:schemaLocation="http://www.topografix.com/GPX/1/1 http://www.topografix.com/GPX/1/1/gpx.xsd" version="1.1" creator="VisuGPX - https://www.visugpx.com">
  <metadata>
    <name>Barrage de Trapan et crêtes</name>
    <desc><![CDATA[Autour de la retenue d'eau du Trapan et un petit tour sur les crêtes vers Bormes.]]></desc>
  </metadata>
  <wpt lat="43.14948" lon="6.29381">
    <ele>65</ele>
    <name><![CDATA[Parking - intersection D98/Route du Barrage]]></name>
  </wpt>
  <wpt lat="43.13997" lon="6.28922">
    <ele>45</ele>
    <name><![CDATA[Carrefour dans un virage]]></name>
  </wpt>
  <wpt lat="43.1384" lon="6.28836">
    <ele>37</ele>
    <name><![CDATA[Virage en épingle à cheveux]]></name>
  </wpt>
  <wpt lat="43.13808" lon="6.28746">
    <ele>33</ele>
    <name><![CDATA[Sentier sur la gauche]]></name>
  </wpt>
  <wpt lat="43.13759" lon="6.29477">
    <ele>96</ele>
    <name><![CDATA[Croisement]]></name>
  </wpt>
  <wpt lat="43.13767" lon="6.29688">
    <ele>126</ele>
    <name><![CDATA[Plateforme et citerne]]></name>
  </wpt>
  <wpt lat="43.13532" lon="6.30151">
    <ele>132</ele>
    <name><![CDATA[Intersection ]]></name>
  </wpt>
  <wpt lat="43.12448" lon="6.31155">
    <ele>160</ele>
    <name><![CDATA[Croisement en T]]></name>
  </wpt>
  <wpt lat="43.14384" lon="6.30186">
    <ele>137</ele>
    <name><![CDATA[Antenne]]></name>
  </wpt>
  <wpt lat="43.1453" lon="6.30431">
    <ele>81</ele>
    <name><![CDATA[Intersection - Chemin de l'Angueiroun]]></name>
  </wpt>
  <wpt lat="43.14859" lon="6.3034">
    <ele>75</ele>
    <name><![CDATA[Piste cyclable]]></name>
  </wpt>
  <wpt lat="43.14967" lon="6.29388">
    <ele>67</ele>
    <name><![CDATA[Parking - intersection D98/Route du Barrage]]></name>
  </wpt>
  <trk>
    <name><![CDATA[Barrage de Trapan et crêtes]]></name>
    <trkseg>
      <trkpt lat="43.14948" lon="6.29381">
        <ele>65</ele>
        <time>2022-02-06T10:30:53+01:00</time>
      </trkpt>
      <trkpt lat="43.14935" lon="6.29381">
        <ele>64</ele>
        <time>2022-02-06T10:31:22+01:00</time>
      </trkpt>
      <trkpt lat="43.14922" lon="6.29354">
        <ele>61</ele>
        <time>2022-02-06T10:31:40+01:00</time>
      </trkpt>
      <trkpt lat="43.14913" lon="6.29325">
        <ele>60</ele>
        <time>2022-02-06T10:31:57+01:00</time>
      </trkpt>
      <trkpt lat="43.14903" lon="6.29296">
        <ele>61</ele>
        <time>2022-02-06T10:32:16+01:00</time>
      </trkpt>
      <trkpt lat="43.14891" lon="6.29271">
        <ele>61</ele>
        <time>2022-02-06T10:32:43+01:00</time>
      </trkpt>
      <trkpt lat="43.14872" lon="6.29251">
        <ele>61</ele>
        <time>2022-02-06T10:33:00+01:00</time>
      </trkpt>
      <trkpt lat="43.14855" lon="6.2923">
        <ele>62</ele>
        <time>2022-02-06T10:33:16+01:00</time>
      </trkpt>
      <trkpt lat="43.14833" lon="6.29221">
        <ele>63</ele>
        <time>2022-02-06T10:33:34+01:00</time>
      </trkpt>
      <trkpt lat="43.14811" lon="6.29214">
        <ele>64</ele>
        <time>2022-02-06T10:33:50+01:00</time>
      </trkpt>
      <trkpt lat="43.14788" lon="6.29215">
        <ele>64</ele>
        <time>2022-02-06T10:34:07+01:00</time>
      </trkpt>
      <trkpt lat="43.14766" lon="6.29223">
        <ele>64</ele>
        <time>2022-02-06T10:34:27+01:00</time>
      </trkpt>
      <trkpt lat="43.14745" lon="6.29238">
        <ele>63</ele>
        <time>2022-02-06T10:34:43+01:00</time>
      </trkpt>
      <trkpt lat="43.14723" lon="6.2925">
        <ele>64</ele>
        <time>2022-02-06T10:34:59+01:00</time>
      </trkpt>
      <trkpt lat="43.14706" lon="6.29271">
        <ele>63</ele>
        <time>2022-02-06T10:35:16+01:00</time>
      </trkpt>
      <trkpt lat="43.14684" lon="6.29278">
        <ele>64</ele>
        <time>2022-02-06T10:35:35+01:00</time>
      </trkpt>
      <trkpt lat="43.14661" lon="6.29274">
        <ele>65</ele>
        <time>2022-02-06T10:35:52+01:00</time>
      </trkpt>
      <trkpt lat="43.14637" lon="6.29272">
        <ele>63</ele>
        <time>2022-02-06T10:36:09+01:00</time>
      </trkpt>
      <trkpt lat="43.14613" lon="6.29278">
        <ele>63</ele>
        <time>2022-02-06T10:36:29+01:00</time>
      </trkpt>
      <trkpt lat="43.1459" lon="6.29282">
        <ele>63</ele>
        <time>2022-02-06T10:36:47+01:00</time>
      </trkpt>
      <trkpt lat="43.14569" lon="6.29295">
        <ele>61</ele>
        <time>2022-02-06T10:37:04+01:00</time>
      </trkpt>
      <trkpt lat="43.14546" lon="6.29294">
        <ele>61</ele>
        <time>2022-02-06T10:37:22+01:00</time>
      </trkpt>
      <trkpt lat="43.1453" lon="6.29271">
        <ele>64</ele>
        <time>2022-02-06T10:37:38+01:00</time>
      </trkpt>
      <trkpt lat="43.14523" lon="6.29241">
        <ele>68</ele>
        <time>2022-02-06T10:37:53+01:00</time>
      </trkpt>
      <trkpt lat="43.14512" lon="6.29215">
        <ele>67</ele>
        <time>2022-02-06T10:38:11+01:00</time>
      </trkpt>
      <trkpt lat="43.14489" lon="6.29216">
        <ele>66</ele>
        <time>2022-02-06T10:38:26+01:00</time>
      </trkpt>
      <trkpt lat="43.1448" lon="6.29245">
        <ele>64</ele>
        <time>2022-02-06T10:38:40+01:00</time>
      </trkpt>
      <trkpt lat="43.14468" lon="6.29271">
        <ele>63</ele>
        <time>2022-02-06T10:38:57+01:00</time>
      </trkpt>
      <trkpt lat="43.14449" lon="6.29289">
        <ele>62</ele>
        <time>2022-02-06T10:39:17+01:00</time>
      </trkpt>
      <trkpt lat="43.14427" lon="6.29281">
        <ele>64</ele>
        <time>2022-02-06T10:39:33+01:00</time>
      </trkpt>
      <trkpt lat="43.14405" lon="6.29271">
        <ele>66</ele>
        <time>2022-02-06T10:39:51+01:00</time>
      </trkpt>
      <trkpt lat="43.14385" lon="6.29254">
        <ele>68</ele>
        <time>2022-02-06T10:40:08+01:00</time>
      </trkpt>
      <trkpt lat="43.14365" lon="6.29239">
        <ele>67</ele>
        <time>2022-02-06T10:40:25+01:00</time>
      </trkpt>
      <trkpt lat="43.14344" lon="6.29228">
        <ele>66</ele>
        <time>2022-02-06T10:40:42+01:00</time>
      </trkpt>
      <trkpt lat="43.14322" lon="6.29218">
        <ele>64</ele>
        <time>2022-02-06T10:40:56+01:00</time>
      </trkpt>
      <trkpt lat="43.14306" lon="6.29196">
        <ele>64</ele>
        <time>2022-02-06T10:41:16+01:00</time>
      </trkpt>
      <trkpt lat="43.14302" lon="6.29164">
        <ele>65</ele>
        <time>2022-02-06T10:41:33+01:00</time>
      </trkpt>
      <trkpt lat="43.14296" lon="6.29133">
        <ele>63</ele>
        <time>2022-02-06T10:41:52+01:00</time>
      </trkpt>
      <trkpt lat="43.14301" lon="6.29103">
        <ele>67</ele>
        <time>2022-02-06T10:42:07+01:00</time>
      </trkpt>
      <trkpt lat="43.1429" lon="6.29075">
        <ele>68</ele>
        <time>2022-02-06T10:42:24+01:00</time>
      </trkpt>
      <trkpt lat="43.14268" lon="6.29088">
        <ele>64</ele>
        <time>2022-02-06T10:42:40+01:00</time>
      </trkpt>
      <trkpt lat="43.14249" lon="6.29105">
        <ele>63</ele>
        <time>2022-02-06T10:42:56+01:00</time>
      </trkpt>
      <trkpt lat="43.14227" lon="6.29115">
        <ele>60</ele>
        <time>2022-02-06T10:43:16+01:00</time>
      </trkpt>
      <trkpt lat="43.14205" lon="6.29109">
        <ele>58</ele>
        <time>2022-02-06T10:44:10+01:00</time>
      </trkpt>
      <trkpt lat="43.14192" lon="6.29083">
        <ele>62</ele>
        <time>2022-02-06T10:44:41+01:00</time>
      </trkpt>
      <trkpt lat="43.14175" lon="6.29062">
        <ele>60</ele>
        <time>2022-02-06T10:45:01+01:00</time>
      </trkpt>
      <trkpt lat="43.14159" lon="6.29039">
        <ele>58</ele>
        <time>2022-02-06T10:45:18+01:00</time>
      </trkpt>
      <trkpt lat="43.14147" lon="6.29012">
        <ele>57</ele>
        <time>2022-02-06T10:45:36+01:00</time>
      </trkpt>
      <trkpt lat="43.1414" lon="6.28982">
        <ele>56</ele>
        <time>2022-02-06T10:45:56+01:00</time>
      </trkpt>
      <trkpt lat="43.14128" lon="6.28954">
        <ele>56</ele>
        <time>2022-02-06T10:46:13+01:00</time>
      </trkpt>
      <trkpt lat="43.14106" lon="6.28944">
        <ele>55</ele>
        <time>2022-02-06T10:46:31+01:00</time>
      </trkpt>
      <trkpt lat="43.14084" lon="6.28953">
        <ele>53</ele>
        <time>2022-02-06T10:46:50+01:00</time>
      </trkpt>
      <trkpt lat="43.14061" lon="6.28958">
        <ele>50</ele>
        <time>2022-02-06T10:47:07+01:00</time>
      </trkpt>
      <trkpt lat="43.14039" lon="6.28949">
        <ele>49</ele>
        <time>2022-02-06T10:47:26+01:00</time>
      </trkpt>
      <trkpt lat="43.14019" lon="6.28931">
        <ele>48</ele>
        <time>2022-02-06T10:47:43+01:00</time>
      </trkpt>
      <trkpt lat="43.13997" lon="6.28922">
        <ele>45</ele>
        <time>2022-02-06T10:48:03+01:00</time>
      </trkpt>
      <trkpt lat="43.13974" lon="6.28916">
        <ele>40</ele>
        <time>2022-02-06T10:48:53+01:00</time>
      </trkpt>
      <trkpt lat="43.13952" lon="6.28907">
        <ele>40</ele>
        <time>2022-02-06T10:49:11+01:00</time>
      </trkpt>
      <trkpt lat="43.1393" lon="6.28899">
        <ele>40</ele>
        <time>2022-02-06T10:49:29+01:00</time>
      </trkpt>
      <trkpt lat="43.13907" lon="6.28902">
        <ele>40</ele>
        <time>2022-02-06T10:49:59+01:00</time>
      </trkpt>
      <trkpt lat="43.13884" lon="6.28909">
        <ele>40</ele>
        <time>2022-02-06T10:50:22+01:00</time>
      </trkpt>
      <trkpt lat="43.13868" lon="6.28887">
        <ele>38</ele>
        <time>2022-02-06T10:50:39+01:00</time>
      </trkpt>
      <trkpt lat="43.13854" lon="6.28861">
        <ele>37</ele>
        <time>2022-02-06T10:50:58+01:00</time>
      </trkpt>
      <trkpt lat="43.1384" lon="6.28836">
        <ele>37</ele>
        <time>2022-02-06T10:51:21+01:00</time>
      </trkpt>
      <trkpt lat="43.13833" lon="6.28806">
        <ele>35</ele>
        <time>2022-02-06T10:51:41+01:00</time>
      </trkpt>
      <trkpt lat="43.1382" lon="6.28776">
        <ele>34</ele>
        <time>2022-02-06T10:51:58+01:00</time>
      </trkpt>
      <trkpt lat="43.13808" lon="6.28746">
        <ele>33</ele>
        <time>2022-02-06T10:52:16+01:00</time>
      </trkpt>
      <trkpt lat="43.13804" lon="6.28749">
        <ele>33</ele>
        <time>2022-02-06T10:53:21+01:00</time>
      </trkpt>
      <trkpt lat="43.13799" lon="6.28783">
        <ele>35</ele>
        <time>2022-02-06T10:53:51+01:00</time>
      </trkpt>
      <trkpt lat="43.13796" lon="6.28814">
        <ele>36</ele>
        <time>2022-02-06T10:54:13+01:00</time>
      </trkpt>
      <trkpt lat="43.13796" lon="6.28845">
        <ele>39</ele>
        <time>2022-02-06T10:54:45+01:00</time>
      </trkpt>
      <trkpt lat="43.13799" lon="6.28875">
        <ele>43</ele>
        <time>2022-02-06T10:55:13+01:00</time>
      </trkpt>
      <trkpt lat="43.13802" lon="6.28907">
        <ele>49</ele>
        <time>2022-02-06T10:55:52+01:00</time>
      </trkpt>
      <trkpt lat="43.13803" lon="6.28937">
        <ele>55</ele>
        <time>2022-02-06T10:56:28+01:00</time>
      </trkpt>
      <trkpt lat="43.13798" lon="6.28968">
        <ele>59</ele>
        <time>2022-02-06T10:57:00+01:00</time>
      </trkpt>
      <trkpt lat="43.13794" lon="6.28999">
        <ele>62</ele>
        <time>2022-02-06T10:57:32+01:00</time>
      </trkpt>
      <trkpt lat="43.13793" lon="6.2903">
        <ele>66</ele>
        <time>2022-02-06T10:58:00+01:00</time>
      </trkpt>
      <trkpt lat="43.13787" lon="6.2906">
        <ele>71</ele>
        <time>2022-02-06T10:58:38+01:00</time>
      </trkpt>
      <trkpt lat="43.13786" lon="6.29091">
        <ele>77</ele>
        <time>2022-02-06T10:59:15+01:00</time>
      </trkpt>
      <trkpt lat="43.13774" lon="6.29118">
        <ele>83</ele>
        <time>2022-02-06T10:59:53+01:00</time>
      </trkpt>
      <trkpt lat="43.13759" lon="6.29143">
        <ele>87</ele>
        <time>2022-02-06T11:01:17+01:00</time>
      </trkpt>
      <trkpt lat="43.13747" lon="6.29168">
        <ele>90</ele>
        <time>2022-02-06T11:01:44+01:00</time>
      </trkpt>
      <trkpt lat="43.13735" lon="6.29196">
        <ele>89</ele>
        <time>2022-02-06T11:03:31+01:00</time>
      </trkpt>
      <trkpt lat="43.13744" lon="6.29225">
        <ele>89</ele>
        <time>2022-02-06T11:04:29+01:00</time>
      </trkpt>
      <trkpt lat="43.13755" lon="6.29253">
        <ele>88</ele>
        <time>2022-02-06T11:04:53+01:00</time>
      </trkpt>
      <trkpt lat="43.13764" lon="6.29282">
        <ele>88</ele>
        <time>2022-02-06T11:05:14+01:00</time>
      </trkpt>
      <trkpt lat="43.13774" lon="6.2931">
        <ele>90</ele>
        <time>2022-02-06T11:05:39+01:00</time>
      </trkpt>
      <trkpt lat="43.13776" lon="6.29341">
        <ele>94</ele>
        <time>2022-02-06T11:06:05+01:00</time>
      </trkpt>
      <trkpt lat="43.13766" lon="6.2937">
        <ele>96</ele>
        <time>2022-02-06T11:06:36+01:00</time>
      </trkpt>
      <trkpt lat="43.13758" lon="6.29399">
        <ele>98</ele>
        <time>2022-02-06T11:07:42+01:00</time>
      </trkpt>
      <trkpt lat="43.13758" lon="6.29431">
        <ele>98</ele>
        <time>2022-02-06T11:08:24+01:00</time>
      </trkpt>
      <trkpt lat="43.1376" lon="6.29462">
        <ele>96</ele>
        <time>2022-02-06T11:08:47+01:00</time>
      </trkpt>
      <trkpt lat="43.13759" lon="6.29477">
        <ele>96</ele>
        <time>2022-02-06T11:10:50+01:00</time>
      </trkpt>
      <trkpt lat="43.13764" lon="6.29507">
        <ele>97</ele>
        <time>2022-02-06T11:11:20+01:00</time>
      </trkpt>
      <trkpt lat="43.13774" lon="6.29536">
        <ele>101</ele>
        <time>2022-02-06T11:11:52+01:00</time>
      </trkpt>
      <trkpt lat="43.1378" lon="6.29567">
        <ele>105</ele>
        <time>2022-02-06T11:12:25+01:00</time>
      </trkpt>
      <trkpt lat="43.13777" lon="6.29598">
        <ele>111</ele>
        <time>2022-02-06T11:12:56+01:00</time>
      </trkpt>
      <trkpt lat="43.13782" lon="6.29629">
        <ele>116</ele>
        <time>2022-02-06T11:13:25+01:00</time>
      </trkpt>
      <trkpt lat="43.13777" lon="6.29659">
        <ele>122</ele>
        <time>2022-02-06T11:14:09+01:00</time>
      </trkpt>
      <trkpt lat="43.13767" lon="6.29688">
        <ele>126</ele>
        <time>2022-02-06T11:15:09+01:00</time>
      </trkpt>
      <trkpt lat="43.13753" lon="6.29714">
        <ele>124</ele>
        <time>2022-02-06T11:16:35+01:00</time>
      </trkpt>
      <trkpt lat="43.13749" lon="6.29745">
        <ele>120</ele>
        <time>2022-02-06T11:17:14+01:00</time>
      </trkpt>
      <trkpt lat="43.1375" lon="6.29777">
        <ele>116</ele>
        <time>2022-02-06T11:17:34+01:00</time>
      </trkpt>
      <trkpt lat="43.13742" lon="6.29806">
        <ele>111</ele>
        <time>2022-02-06T11:17:53+01:00</time>
      </trkpt>
      <trkpt lat="43.13731" lon="6.29833">
        <ele>109</ele>
        <time>2022-02-06T11:18:15+01:00</time>
      </trkpt>
      <trkpt lat="43.13718" lon="6.2986">
        <ele>108</ele>
        <time>2022-02-06T11:18:31+01:00</time>
      </trkpt>
      <trkpt lat="43.13705" lon="6.29886">
        <ele>109</ele>
        <time>2022-02-06T11:18:48+01:00</time>
      </trkpt>
      <trkpt lat="43.13694" lon="6.29913">
        <ele>110</ele>
        <time>2022-02-06T11:19:06+01:00</time>
      </trkpt>
      <trkpt lat="43.13684" lon="6.29941">
        <ele>106</ele>
        <time>2022-02-06T11:19:23+01:00</time>
      </trkpt>
      <trkpt lat="43.13674" lon="6.29969">
        <ele>106</ele>
        <time>2022-02-06T11:19:44+01:00</time>
      </trkpt>
      <trkpt lat="43.13668" lon="6.29999">
        <ele>110</ele>
        <time>2022-02-06T11:20:03+01:00</time>
      </trkpt>
      <trkpt lat="43.13658" lon="6.30027">
        <ele>112</ele>
        <time>2022-02-06T11:20:25+01:00</time>
      </trkpt>
      <trkpt lat="43.13643" lon="6.3005">
        <ele>117</ele>
        <time>2022-02-06T11:20:50+01:00</time>
      </trkpt>
      <trkpt lat="43.13628" lon="6.30073">
        <ele>122</ele>
        <time>2022-02-06T11:21:12+01:00</time>
      </trkpt>
      <trkpt lat="43.13614" lon="6.30098">
        <ele>127</ele>
        <time>2022-02-06T11:21:43+01:00</time>
      </trkpt>
      <trkpt lat="43.13595" lon="6.30116">
        <ele>129</ele>
        <time>2022-02-06T11:22:20+01:00</time>
      </trkpt>
      <trkpt lat="43.13575" lon="6.30132">
        <ele>130</ele>
        <time>2022-02-06T11:22:39+01:00</time>
      </trkpt>
      <trkpt lat="43.13555" lon="6.30146">
        <ele>132</ele>
        <time>2022-02-06T11:23:00+01:00</time>
      </trkpt>
      <trkpt lat="43.13532" lon="6.30151">
        <ele>132</ele>
        <time>2022-02-06T11:26:50+01:00</time>
      </trkpt>
      <trkpt lat="43.1351" lon="6.30163">
        <ele>129</ele>
        <time>2022-02-06T11:27:13+01:00</time>
      </trkpt>
      <trkpt lat="43.13491" lon="6.30179">
        <ele>124</ele>
        <time>2022-02-06T11:27:34+01:00</time>
      </trkpt>
      <trkpt lat="43.13474" lon="6.302">
        <ele>123</ele>
        <time>2022-02-06T11:27:52+01:00</time>
      </trkpt>
      <trkpt lat="43.13457" lon="6.30222">
        <ele>125</ele>
        <time>2022-02-06T11:28:10+01:00</time>
      </trkpt>
      <trkpt lat="43.13439" lon="6.30242">
        <ele>127</ele>
        <time>2022-02-06T11:28:26+01:00</time>
      </trkpt>
      <trkpt lat="43.1342" lon="6.30259">
        <ele>125</ele>
        <time>2022-02-06T11:28:52+01:00</time>
      </trkpt>
      <trkpt lat="43.13402" lon="6.30279">
        <ele>123</ele>
        <time>2022-02-06T11:29:22+01:00</time>
      </trkpt>
      <trkpt lat="43.1339" lon="6.30305">
        <ele>123</ele>
        <time>2022-02-06T11:29:57+01:00</time>
      </trkpt>
      <trkpt lat="43.13377" lon="6.30332">
        <ele>127</ele>
        <time>2022-02-06T11:30:18+01:00</time>
      </trkpt>
      <trkpt lat="43.13358" lon="6.30351">
        <ele>129</ele>
        <time>2022-02-06T11:30:38+01:00</time>
      </trkpt>
      <trkpt lat="43.13338" lon="6.30368">
        <ele>131</ele>
        <time>2022-02-06T11:30:58+01:00</time>
      </trkpt>
      <trkpt lat="43.13317" lon="6.30382">
        <ele>135</ele>
        <time>2022-02-06T11:31:25+01:00</time>
      </trkpt>
      <trkpt lat="43.13294" lon="6.30384">
        <ele>139</ele>
        <time>2022-02-06T11:31:48+01:00</time>
      </trkpt>
      <trkpt lat="43.13272" lon="6.30393">
        <ele>141</ele>
        <time>2022-02-06T11:32:14+01:00</time>
      </trkpt>
      <trkpt lat="43.13254" lon="6.30413">
        <ele>143</ele>
        <time>2022-02-06T11:34:13+01:00</time>
      </trkpt>
      <trkpt lat="43.13245" lon="6.30444">
        <ele>143</ele>
        <time>2022-02-06T11:34:29+01:00</time>
      </trkpt>
      <trkpt lat="43.13237" lon="6.30473">
        <ele>141</ele>
        <time>2022-02-06T11:34:44+01:00</time>
      </trkpt>
      <trkpt lat="43.13228" lon="6.30501">
        <ele>141</ele>
        <time>2022-02-06T11:35:01+01:00</time>
      </trkpt>
      <trkpt lat="43.13217" lon="6.3053">
        <ele>140</ele>
        <time>2022-02-06T11:35:21+01:00</time>
      </trkpt>
      <trkpt lat="43.13204" lon="6.30555">
        <ele>140</ele>
        <time>2022-02-06T11:35:41+01:00</time>
      </trkpt>
      <trkpt lat="43.13187" lon="6.30579">
        <ele>139</ele>
        <time>2022-02-06T11:35:58+01:00</time>
      </trkpt>
      <trkpt lat="43.13169" lon="6.30602">
        <ele>139</ele>
        <time>2022-02-06T11:36:16+01:00</time>
      </trkpt>
      <trkpt lat="43.1315" lon="6.3062">
        <ele>140</ele>
        <time>2022-02-06T11:36:32+01:00</time>
      </trkpt>
      <trkpt lat="43.1313" lon="6.30635">
        <ele>140</ele>
        <time>2022-02-06T11:36:52+01:00</time>
      </trkpt>
      <trkpt lat="43.13109" lon="6.30648">
        <ele>140</ele>
        <time>2022-02-06T11:37:12+01:00</time>
      </trkpt>
      <trkpt lat="43.13086" lon="6.30655">
        <ele>144</ele>
        <time>2022-02-06T11:37:28+01:00</time>
      </trkpt>
      <trkpt lat="43.13065" lon="6.30669">
        <ele>147</ele>
        <time>2022-02-06T11:37:47+01:00</time>
      </trkpt>
      <trkpt lat="43.13045" lon="6.30685">
        <ele>149</ele>
        <time>2022-02-06T11:38:06+01:00</time>
      </trkpt>
      <trkpt lat="43.13026" lon="6.30702">
        <ele>151</ele>
        <time>2022-02-06T11:38:25+01:00</time>
      </trkpt>
      <trkpt lat="43.13006" lon="6.3072">
        <ele>152</ele>
        <time>2022-02-06T11:38:50+01:00</time>
      </trkpt>
      <trkpt lat="43.12992" lon="6.30745">
        <ele>151</ele>
        <time>2022-02-06T11:39:09+01:00</time>
      </trkpt>
      <trkpt lat="43.12982" lon="6.30774">
        <ele>147</ele>
        <time>2022-02-06T11:39:27+01:00</time>
      </trkpt>
      <trkpt lat="43.12972" lon="6.30803">
        <ele>143</ele>
        <time>2022-02-06T11:39:45+01:00</time>
      </trkpt>
      <trkpt lat="43.12955" lon="6.30825">
        <ele>139</ele>
        <time>2022-02-06T11:40:00+01:00</time>
      </trkpt>
      <trkpt lat="43.12942" lon="6.30852">
        <ele>138</ele>
        <time>2022-02-06T11:40:20+01:00</time>
      </trkpt>
      <trkpt lat="43.12929" lon="6.30877">
        <ele>135</ele>
        <time>2022-02-06T11:40:35+01:00</time>
      </trkpt>
      <trkpt lat="43.12915" lon="6.30904">
        <ele>131</ele>
        <time>2022-02-06T11:40:50+01:00</time>
      </trkpt>
      <trkpt lat="43.12898" lon="6.30926">
        <ele>130</ele>
        <time>2022-02-06T11:41:11+01:00</time>
      </trkpt>
      <trkpt lat="43.12879" lon="6.30942">
        <ele>129</ele>
        <time>2022-02-06T11:41:27+01:00</time>
      </trkpt>
      <trkpt lat="43.1286" lon="6.30962">
        <ele>129</ele>
        <time>2022-02-06T11:41:43+01:00</time>
      </trkpt>
      <trkpt lat="43.12843" lon="6.30982">
        <ele>130</ele>
        <time>2022-02-06T11:42:01+01:00</time>
      </trkpt>
      <trkpt lat="43.12821" lon="6.30995">
        <ele>130</ele>
        <time>2022-02-06T11:42:21+01:00</time>
      </trkpt>
      <trkpt lat="43.12798" lon="6.30996">
        <ele>130</ele>
        <time>2022-02-06T11:42:37+01:00</time>
      </trkpt>
      <trkpt lat="43.12775" lon="6.30996">
        <ele>130</ele>
        <time>2022-02-06T11:42:54+01:00</time>
      </trkpt>
      <trkpt lat="43.12752" lon="6.30998">
        <ele>130</ele>
        <time>2022-02-06T11:44:46+01:00</time>
      </trkpt>
      <trkpt lat="43.12729" lon="6.31004">
        <ele>130</ele>
        <time>2022-02-06T11:45:02+01:00</time>
      </trkpt>
      <trkpt lat="43.12706" lon="6.31006">
        <ele>130</ele>
        <time>2022-02-06T11:45:17+01:00</time>
      </trkpt>
      <trkpt lat="43.12684" lon="6.31008">
        <ele>132</ele>
        <time>2022-02-06T11:45:36+01:00</time>
      </trkpt>
      <trkpt lat="43.12661" lon="6.31013">
        <ele>135</ele>
        <time>2022-02-06T11:45:55+01:00</time>
      </trkpt>
      <trkpt lat="43.12639" lon="6.31017">
        <ele>139</ele>
        <time>2022-02-06T11:46:15+01:00</time>
      </trkpt>
      <trkpt lat="43.12616" lon="6.31023">
        <ele>140</ele>
        <time>2022-02-06T11:46:33+01:00</time>
      </trkpt>
      <trkpt lat="43.12595" lon="6.31036">
        <ele>140</ele>
        <time>2022-02-06T11:46:53+01:00</time>
      </trkpt>
      <trkpt lat="43.12577" lon="6.31055">
        <ele>139</ele>
        <time>2022-02-06T11:47:11+01:00</time>
      </trkpt>
      <trkpt lat="43.12564" lon="6.31081">
        <ele>140</ele>
        <time>2022-02-06T11:47:31+01:00</time>
      </trkpt>
      <trkpt lat="43.12549" lon="6.31105">
        <ele>144</ele>
        <time>2022-02-06T11:47:54+01:00</time>
      </trkpt>
      <trkpt lat="43.12529" lon="6.3112">
        <ele>148</ele>
        <time>2022-02-06T11:48:16+01:00</time>
      </trkpt>
      <trkpt lat="43.12509" lon="6.31137">
        <ele>152</ele>
        <time>2022-02-06T11:48:46+01:00</time>
      </trkpt>
      <trkpt lat="43.12489" lon="6.31152">
        <ele>157</ele>
        <time>2022-02-06T11:49:08+01:00</time>
      </trkpt>
      <trkpt lat="43.12469" lon="6.31168">
        <ele>160</ele>
        <time>2022-02-06T11:49:32+01:00</time>
      </trkpt>
      <trkpt lat="43.12448" lon="6.31155">
        <ele>160</ele>
        <time>2022-02-06T11:51:24+01:00</time>
      </trkpt>
      <trkpt lat="43.12431" lon="6.31133">
        <ele>160</ele>
        <time>2022-02-06T11:51:45+01:00</time>
      </trkpt>
      <trkpt lat="43.12416" lon="6.31109">
        <ele>160</ele>
        <time>2022-02-06T11:52:04+01:00</time>
      </trkpt>
      <trkpt lat="43.12397" lon="6.31089">
        <ele>163</ele>
        <time>2022-02-06T11:52:24+01:00</time>
      </trkpt>
      <trkpt lat="43.12377" lon="6.31076">
        <ele>166</ele>
        <time>2022-02-06T11:52:45+01:00</time>
      </trkpt>
      <trkpt lat="43.12358" lon="6.31059">
        <ele>167</ele>
        <time>2022-02-06T11:53:08+01:00</time>
      </trkpt>
      <trkpt lat="43.12338" lon="6.31044">
        <ele>165</ele>
        <time>2022-02-06T11:53:44+01:00</time>
      </trkpt>
      <trkpt lat="43.12315" lon="6.31045">
        <ele>167</ele>
        <time>2022-02-06T11:54:01+01:00</time>
      </trkpt>
      <trkpt lat="43.12293" lon="6.31035">
        <ele>169</ele>
        <time>2022-02-06T11:54:23+01:00</time>
      </trkpt>
      <trkpt lat="43.12313" lon="6.3105">
        <ele>166</ele>
        <time>2022-02-06T11:58:24+01:00</time>
      </trkpt>
      <trkpt lat="43.12337" lon="6.31048">
        <ele>164</ele>
        <time>2022-02-06T11:58:45+01:00</time>
      </trkpt>
      <trkpt lat="43.12358" lon="6.3106">
        <ele>167</ele>
        <time>2022-02-06T11:59:07+01:00</time>
      </trkpt>
      <trkpt lat="43.12377" lon="6.31078">
        <ele>166</ele>
        <time>2022-02-06T11:59:33+01:00</time>
      </trkpt>
      <trkpt lat="43.12398" lon="6.3109">
        <ele>162</ele>
        <time>2022-02-06T11:59:53+01:00</time>
      </trkpt>
      <trkpt lat="43.12416" lon="6.3111">
        <ele>160</ele>
        <time>2022-02-06T12:00:10+01:00</time>
      </trkpt>
      <trkpt lat="43.12432" lon="6.31132">
        <ele>160</ele>
        <time>2022-02-06T12:00:29+01:00</time>
      </trkpt>
      <trkpt lat="43.12448" lon="6.31154">
        <ele>160</ele>
        <time>2022-02-06T12:00:44+01:00</time>
      </trkpt>
      <trkpt lat="43.12469" lon="6.31167">
        <ele>160</ele>
        <time>2022-02-06T12:01:04+01:00</time>
      </trkpt>
      <trkpt lat="43.12489" lon="6.31151">
        <ele>156</ele>
        <time>2022-02-06T12:01:27+01:00</time>
      </trkpt>
      <trkpt lat="43.12511" lon="6.31139">
        <ele>152</ele>
        <time>2022-02-06T12:01:44+01:00</time>
      </trkpt>
      <trkpt lat="43.1253" lon="6.31122">
        <ele>148</ele>
        <time>2022-02-06T12:02:07+01:00</time>
      </trkpt>
      <trkpt lat="43.12549" lon="6.31102">
        <ele>144</ele>
        <time>2022-02-06T12:02:26+01:00</time>
      </trkpt>
      <trkpt lat="43.12566" lon="6.3108">
        <ele>140</ele>
        <time>2022-02-06T12:02:43+01:00</time>
      </trkpt>
      <trkpt lat="43.12581" lon="6.31055">
        <ele>140</ele>
        <time>2022-02-06T12:02:59+01:00</time>
      </trkpt>
      <trkpt lat="43.126" lon="6.31039">
        <ele>140</ele>
        <time>2022-02-06T12:03:16+01:00</time>
      </trkpt>
      <trkpt lat="43.12621" lon="6.31027">
        <ele>140</ele>
        <time>2022-02-06T12:03:35+01:00</time>
      </trkpt>
      <trkpt lat="43.12643" lon="6.31018">
        <ele>138</ele>
        <time>2022-02-06T12:03:52+01:00</time>
      </trkpt>
      <trkpt lat="43.12667" lon="6.31013">
        <ele>134</ele>
        <time>2022-02-06T12:04:09+01:00</time>
      </trkpt>
      <trkpt lat="43.1269" lon="6.31011">
        <ele>131</ele>
        <time>2022-02-06T12:04:29+01:00</time>
      </trkpt>
      <trkpt lat="43.12712" lon="6.31007">
        <ele>130</ele>
        <time>2022-02-06T12:04:45+01:00</time>
      </trkpt>
      <trkpt lat="43.12736" lon="6.31004">
        <ele>130</ele>
        <time>2022-02-06T12:05:06+01:00</time>
      </trkpt>
      <trkpt lat="43.12758" lon="6.30996">
        <ele>130</ele>
        <time>2022-02-06T12:05:22+01:00</time>
      </trkpt>
      <trkpt lat="43.1278" lon="6.31001">
        <ele>130</ele>
        <time>2022-02-06T12:05:39+01:00</time>
      </trkpt>
      <trkpt lat="43.12803" lon="6.31001">
        <ele>130</ele>
        <time>2022-02-06T12:05:57+01:00</time>
      </trkpt>
      <trkpt lat="43.12826" lon="6.30994">
        <ele>130</ele>
        <time>2022-02-06T12:06:17+01:00</time>
      </trkpt>
      <trkpt lat="43.12847" lon="6.30978">
        <ele>130</ele>
        <time>2022-02-06T12:06:33+01:00</time>
      </trkpt>
      <trkpt lat="43.12866" lon="6.3096">
        <ele>129</ele>
        <time>2022-02-06T12:06:49+01:00</time>
      </trkpt>
      <trkpt lat="43.12885" lon="6.30939">
        <ele>129</ele>
        <time>2022-02-06T12:07:09+01:00</time>
      </trkpt>
      <trkpt lat="43.12903" lon="6.30921">
        <ele>130</ele>
        <time>2022-02-06T12:07:26+01:00</time>
      </trkpt>
      <trkpt lat="43.1292" lon="6.30901">
        <ele>132</ele>
        <time>2022-02-06T12:07:43+01:00</time>
      </trkpt>
      <trkpt lat="43.12937" lon="6.30879">
        <ele>137</ele>
        <time>2022-02-06T12:08:03+01:00</time>
      </trkpt>
      <trkpt lat="43.12949" lon="6.3085">
        <ele>139</ele>
        <time>2022-02-06T12:08:25+01:00</time>
      </trkpt>
      <trkpt lat="43.12961" lon="6.30823">
        <ele>140</ele>
        <time>2022-02-06T12:09:24+01:00</time>
      </trkpt>
      <trkpt lat="43.12977" lon="6.30801">
        <ele>144</ele>
        <time>2022-02-06T12:09:45+01:00</time>
      </trkpt>
      <trkpt lat="43.12989" lon="6.30774">
        <ele>148</ele>
        <time>2022-02-06T12:10:09+01:00</time>
      </trkpt>
      <trkpt lat="43.12994" lon="6.30744">
        <ele>151</ele>
        <time>2022-02-06T12:10:34+01:00</time>
      </trkpt>
      <trkpt lat="43.13009" lon="6.30721">
        <ele>152</ele>
        <time>2022-02-06T12:11:06+01:00</time>
      </trkpt>
      <trkpt lat="43.13029" lon="6.30703">
        <ele>151</ele>
        <time>2022-02-06T12:11:24+01:00</time>
      </trkpt>
      <trkpt lat="43.13049" lon="6.30689">
        <ele>150</ele>
        <time>2022-02-06T12:11:41+01:00</time>
      </trkpt>
      <trkpt lat="43.13066" lon="6.30668">
        <ele>147</ele>
        <time>2022-02-06T12:11:57+01:00</time>
      </trkpt>
      <trkpt lat="43.13087" lon="6.30653">
        <ele>144</ele>
        <time>2022-02-06T12:12:13+01:00</time>
      </trkpt>
      <trkpt lat="43.13109" lon="6.30647">
        <ele>140</ele>
        <time>2022-02-06T12:12:28+01:00</time>
      </trkpt>
      <trkpt lat="43.1313" lon="6.30633">
        <ele>140</ele>
        <time>2022-02-06T12:12:49+01:00</time>
      </trkpt>
      <trkpt lat="43.13151" lon="6.30618">
        <ele>140</ele>
        <time>2022-02-06T12:13:07+01:00</time>
      </trkpt>
      <trkpt lat="43.1317" lon="6.30601">
        <ele>139</ele>
        <time>2022-02-06T12:13:20+01:00</time>
      </trkpt>
      <trkpt lat="43.13186" lon="6.30578">
        <ele>139</ele>
        <time>2022-02-06T12:13:38+01:00</time>
      </trkpt>
      <trkpt lat="43.13203" lon="6.30556">
        <ele>140</ele>
        <time>2022-02-06T12:13:57+01:00</time>
      </trkpt>
      <trkpt lat="43.13219" lon="6.30534">
        <ele>140</ele>
        <time>2022-02-06T12:14:16+01:00</time>
      </trkpt>
      <trkpt lat="43.1323" lon="6.30506">
        <ele>141</ele>
        <time>2022-02-06T12:14:33+01:00</time>
      </trkpt>
      <trkpt lat="43.13236" lon="6.30476">
        <ele>141</ele>
        <time>2022-02-06T12:14:52+01:00</time>
      </trkpt>
      <trkpt lat="43.13244" lon="6.30447">
        <ele>142</ele>
        <time>2022-02-06T12:15:08+01:00</time>
      </trkpt>
      <trkpt lat="43.13253" lon="6.30417">
        <ele>144</ele>
        <time>2022-02-06T12:15:26+01:00</time>
      </trkpt>
      <trkpt lat="43.13267" lon="6.30392">
        <ele>141</ele>
        <time>2022-02-06T12:15:47+01:00</time>
      </trkpt>
      <trkpt lat="43.13289" lon="6.30385">
        <ele>139</ele>
        <time>2022-02-06T12:16:28+01:00</time>
      </trkpt>
      <trkpt lat="43.13313" lon="6.30382">
        <ele>136</ele>
        <time>2022-02-06T12:16:50+01:00</time>
      </trkpt>
      <trkpt lat="43.13335" lon="6.3037">
        <ele>132</ele>
        <time>2022-02-06T12:17:07+01:00</time>
      </trkpt>
      <trkpt lat="43.13353" lon="6.30352">
        <ele>129</ele>
        <time>2022-02-06T12:17:25+01:00</time>
      </trkpt>
      <trkpt lat="43.13372" lon="6.30334">
        <ele>128</ele>
        <time>2022-02-06T12:17:40+01:00</time>
      </trkpt>
      <trkpt lat="43.13388" lon="6.30312">
        <ele>124</ele>
        <time>2022-02-06T12:17:57+01:00</time>
      </trkpt>
      <trkpt lat="43.13401" lon="6.30286">
        <ele>123</ele>
        <time>2022-02-06T12:18:14+01:00</time>
      </trkpt>
      <trkpt lat="43.13414" lon="6.30261">
        <ele>124</ele>
        <time>2022-02-06T12:18:33+01:00</time>
      </trkpt>
      <trkpt lat="43.13432" lon="6.3024">
        <ele>125</ele>
        <time>2022-02-06T12:18:53+01:00</time>
      </trkpt>
      <trkpt lat="43.13453" lon="6.30224">
        <ele>125</ele>
        <time>2022-02-06T12:19:10+01:00</time>
      </trkpt>
      <trkpt lat="43.1347" lon="6.30202">
        <ele>123</ele>
        <time>2022-02-06T12:19:25+01:00</time>
      </trkpt>
      <trkpt lat="43.13487" lon="6.30182">
        <ele>124</ele>
        <time>2022-02-06T12:19:42+01:00</time>
      </trkpt>
      <trkpt lat="43.13507" lon="6.30164">
        <ele>128</ele>
        <time>2022-02-06T12:20:01+01:00</time>
      </trkpt>
      <trkpt lat="43.13528" lon="6.30153">
        <ele>132</ele>
        <time>2022-02-06T12:20:30+01:00</time>
      </trkpt>
      <trkpt lat="43.13551" lon="6.30151">
        <ele>133</ele>
        <time>2022-02-06T12:20:51+01:00</time>
      </trkpt>
      <trkpt lat="43.1356" lon="6.30179">
        <ele>133</ele>
        <time>2022-02-06T12:22:23+01:00</time>
      </trkpt>
      <trkpt lat="43.13568" lon="6.3021">
        <ele>129</ele>
        <time>2022-02-06T12:22:46+01:00</time>
      </trkpt>
      <trkpt lat="43.13576" lon="6.30241">
        <ele>125</ele>
        <time>2022-02-06T12:23:08+01:00</time>
      </trkpt>
      <trkpt lat="43.13582" lon="6.3027">
        <ele>124</ele>
        <time>2022-02-06T12:23:24+01:00</time>
      </trkpt>
      <trkpt lat="43.13592" lon="6.30299">
        <ele>124</ele>
        <time>2022-02-06T12:23:43+01:00</time>
      </trkpt>
      <trkpt lat="43.13604" lon="6.30325">
        <ele>128</ele>
        <time>2022-02-06T12:24:15+01:00</time>
      </trkpt>
      <trkpt lat="43.13617" lon="6.30351">
        <ele>134</ele>
        <time>2022-02-06T12:24:50+01:00</time>
      </trkpt>
      <trkpt lat="43.13628" lon="6.30378">
        <ele>140</ele>
        <time>2022-02-06T12:25:28+01:00</time>
      </trkpt>
      <trkpt lat="43.13643" lon="6.30403">
        <ele>144</ele>
        <time>2022-02-06T12:25:55+01:00</time>
      </trkpt>
      <trkpt lat="43.13661" lon="6.30423">
        <ele>145</ele>
        <time>2022-02-06T12:26:22+01:00</time>
      </trkpt>
      <trkpt lat="43.13677" lon="6.30445">
        <ele>144</ele>
        <time>2022-02-06T12:26:59+01:00</time>
      </trkpt>
      <trkpt lat="43.13696" lon="6.30463">
        <ele>146</ele>
        <time>2022-02-06T12:27:18+01:00</time>
      </trkpt>
      <trkpt lat="43.13718" lon="6.30473">
        <ele>149</ele>
        <time>2022-02-06T12:27:49+01:00</time>
      </trkpt>
      <trkpt lat="43.1374" lon="6.30463">
        <ele>147</ele>
        <time>2022-02-06T12:28:27+01:00</time>
      </trkpt>
      <trkpt lat="43.13762" lon="6.30452">
        <ele>142</ele>
        <time>2022-02-06T12:28:58+01:00</time>
      </trkpt>
      <trkpt lat="43.13785" lon="6.30451">
        <ele>138</ele>
        <time>2022-02-06T12:29:27+01:00</time>
      </trkpt>
      <trkpt lat="43.13807" lon="6.30443">
        <ele>132</ele>
        <time>2022-02-06T12:29:47+01:00</time>
      </trkpt>
      <trkpt lat="43.13825" lon="6.30424">
        <ele>126</ele>
        <time>2022-02-06T12:30:08+01:00</time>
      </trkpt>
      <trkpt lat="43.13837" lon="6.30396">
        <ele>121</ele>
        <time>2022-02-06T12:30:32+01:00</time>
      </trkpt>
      <trkpt lat="43.1385" lon="6.3037">
        <ele>116</ele>
        <time>2022-02-06T12:30:58+01:00</time>
      </trkpt>
      <trkpt lat="43.13862" lon="6.30343">
        <ele>114</ele>
        <time>2022-02-06T12:31:18+01:00</time>
      </trkpt>
      <trkpt lat="43.13876" lon="6.30318">
        <ele>111</ele>
        <time>2022-02-06T12:31:39+01:00</time>
      </trkpt>
      <trkpt lat="43.13896" lon="6.303">
        <ele>110</ele>
        <time>2022-02-06T12:31:56+01:00</time>
      </trkpt>
      <trkpt lat="43.13917" lon="6.30289">
        <ele>110</ele>
        <time>2022-02-06T12:32:17+01:00</time>
      </trkpt>
      <trkpt lat="43.13939" lon="6.30276">
        <ele>110</ele>
        <time>2022-02-06T12:32:36+01:00</time>
      </trkpt>
      <trkpt lat="43.13961" lon="6.30269">
        <ele>110</ele>
        <time>2022-02-06T12:32:55+01:00</time>
      </trkpt>
      <trkpt lat="43.13984" lon="6.30273">
        <ele>110</ele>
        <time>2022-02-06T12:33:20+01:00</time>
      </trkpt>
      <trkpt lat="43.14006" lon="6.30284">
        <ele>111</ele>
        <time>2022-02-06T12:33:47+01:00</time>
      </trkpt>
      <trkpt lat="43.14023" lon="6.30305">
        <ele>114</ele>
        <time>2022-02-06T12:34:08+01:00</time>
      </trkpt>
      <trkpt lat="43.14041" lon="6.30323">
        <ele>118</ele>
        <time>2022-02-06T13:13:22+01:00</time>
      </trkpt>
      <trkpt lat="43.14064" lon="6.30325">
        <ele>120</ele>
        <time>2022-02-06T13:14:05+01:00</time>
      </trkpt>
      <trkpt lat="43.14087" lon="6.30331">
        <ele>121</ele>
        <time>2022-02-06T13:14:30+01:00</time>
      </trkpt>
      <trkpt lat="43.1411" lon="6.30336">
        <ele>121</ele>
        <time>2022-02-06T13:14:57+01:00</time>
      </trkpt>
      <trkpt lat="43.14133" lon="6.3033">
        <ele>120</ele>
        <time>2022-02-06T13:15:39+01:00</time>
      </trkpt>
      <trkpt lat="43.14155" lon="6.30322">
        <ele>120</ele>
        <time>2022-02-06T13:16:05+01:00</time>
      </trkpt>
      <trkpt lat="43.14172" lon="6.30302">
        <ele>118</ele>
        <time>2022-02-06T13:16:28+01:00</time>
      </trkpt>
      <trkpt lat="43.14192" lon="6.30286">
        <ele>113</ele>
        <time>2022-02-06T13:16:47+01:00</time>
      </trkpt>
      <trkpt lat="43.14214" lon="6.30275">
        <ele>110</ele>
        <time>2022-02-06T13:17:33+01:00</time>
      </trkpt>
      <trkpt lat="43.14234" lon="6.3026">
        <ele>108</ele>
        <time>2022-02-06T13:17:56+01:00</time>
      </trkpt>
      <trkpt lat="43.14256" lon="6.3025">
        <ele>106</ele>
        <time>2022-02-06T13:18:14+01:00</time>
      </trkpt>
      <trkpt lat="43.14278" lon="6.30241">
        <ele>106</ele>
        <time>2022-02-06T13:18:31+01:00</time>
      </trkpt>
      <trkpt lat="43.143" lon="6.30232">
        <ele>111</ele>
        <time>2022-02-06T13:19:03+01:00</time>
      </trkpt>
      <trkpt lat="43.1432" lon="6.30215">
        <ele>116</ele>
        <time>2022-02-06T13:19:37+01:00</time>
      </trkpt>
      <trkpt lat="43.14341" lon="6.30205">
        <ele>123</ele>
        <time>2022-02-06T13:20:02+01:00</time>
      </trkpt>
      <trkpt lat="43.14361" lon="6.3019">
        <ele>131</ele>
        <time>2022-02-06T13:20:44+01:00</time>
      </trkpt>
      <trkpt lat="43.14384" lon="6.30186">
        <ele>137</ele>
        <time>2022-02-06T13:21:43+01:00</time>
      </trkpt>
      <trkpt lat="43.14407" lon="6.30188">
        <ele>139</ele>
        <time>2022-02-06T13:23:29+01:00</time>
      </trkpt>
      <trkpt lat="43.14436" lon="6.30218">
        <ele>131</ele>
        <time>2022-02-06T13:41:37+01:00</time>
      </trkpt>
      <trkpt lat="43.14449" lon="6.30245">
        <ele>125</ele>
        <time>2022-02-06T13:42:00+01:00</time>
      </trkpt>
      <trkpt lat="43.14459" lon="6.30272">
        <ele>117</ele>
        <time>2022-02-06T13:42:29+01:00</time>
      </trkpt>
      <trkpt lat="43.14474" lon="6.30296">
        <ele>109</ele>
        <time>2022-02-06T13:42:56+01:00</time>
      </trkpt>
      <trkpt lat="43.14486" lon="6.30324">
        <ele>101</ele>
        <time>2022-02-06T13:43:24+01:00</time>
      </trkpt>
      <trkpt lat="43.145" lon="6.3035">
        <ele>94</ele>
        <time>2022-02-06T13:43:54+01:00</time>
      </trkpt>
      <trkpt lat="43.14507" lon="6.30379">
        <ele>88</ele>
        <time>2022-02-06T13:44:14+01:00</time>
      </trkpt>
      <trkpt lat="43.14515" lon="6.30408">
        <ele>83</ele>
        <time>2022-02-06T13:44:33+01:00</time>
      </trkpt>
      <trkpt lat="43.1453" lon="6.30431">
        <ele>81</ele>
        <time>2022-02-06T13:44:54+01:00</time>
      </trkpt>
      <trkpt lat="43.14553" lon="6.30421">
        <ele>80</ele>
        <time>2022-02-06T13:45:26+01:00</time>
      </trkpt>
      <trkpt lat="43.14572" lon="6.30404">
        <ele>81</ele>
        <time>2022-02-06T13:46:40+01:00</time>
      </trkpt>
      <trkpt lat="43.14594" lon="6.30393">
        <ele>80</ele>
        <time>2022-02-06T13:47:15+01:00</time>
      </trkpt>
      <trkpt lat="43.14613" lon="6.30373">
        <ele>79</ele>
        <time>2022-02-06T13:47:31+01:00</time>
      </trkpt>
      <trkpt lat="43.14633" lon="6.30358">
        <ele>79</ele>
        <time>2022-02-06T13:47:48+01:00</time>
      </trkpt>
      <trkpt lat="43.14652" lon="6.30342">
        <ele>78</ele>
        <time>2022-02-06T13:48:05+01:00</time>
      </trkpt>
      <trkpt lat="43.14673" lon="6.30329">
        <ele>76</ele>
        <time>2022-02-06T13:48:23+01:00</time>
      </trkpt>
      <trkpt lat="43.14693" lon="6.30314">
        <ele>75</ele>
        <time>2022-02-06T13:48:42+01:00</time>
      </trkpt>
      <trkpt lat="43.14714" lon="6.30299">
        <ele>75</ele>
        <time>2022-02-06T13:49:00+01:00</time>
      </trkpt>
      <trkpt lat="43.14737" lon="6.30295">
        <ele>75</ele>
        <time>2022-02-06T13:49:18+01:00</time>
      </trkpt>
      <trkpt lat="43.1476" lon="6.30296">
        <ele>75</ele>
        <time>2022-02-06T13:49:32+01:00</time>
      </trkpt>
      <trkpt lat="43.14782" lon="6.30291">
        <ele>74</ele>
        <time>2022-02-06T13:49:52+01:00</time>
      </trkpt>
      <trkpt lat="43.14805" lon="6.30287">
        <ele>74</ele>
        <time>2022-02-06T13:50:48+01:00</time>
      </trkpt>
      <trkpt lat="43.14819" lon="6.30312">
        <ele>75</ele>
        <time>2022-02-06T13:51:17+01:00</time>
      </trkpt>
      <trkpt lat="43.14839" lon="6.30326">
        <ele>74</ele>
        <time>2022-02-06T13:51:36+01:00</time>
      </trkpt>
      <trkpt lat="43.14859" lon="6.3034">
        <ele>75</ele>
      </trkpt>
      <trkpt lat="43.14855" lon="6.30303">
        <ele>73</ele>
        <time>2022-02-06T13:52:19+01:00</time>
      </trkpt>
      <trkpt lat="43.14858" lon="6.30271">
        <ele>71</ele>
        <time>2022-02-06T13:52:36+01:00</time>
      </trkpt>
      <trkpt lat="43.1486" lon="6.30239">
        <ele>71</ele>
        <time>2022-02-06T13:52:57+01:00</time>
      </trkpt>
      <trkpt lat="43.14863" lon="6.30207">
        <ele>70</ele>
        <time>2022-02-06T13:53:11+01:00</time>
      </trkpt>
      <trkpt lat="43.14864" lon="6.30178">
        <ele>70</ele>
        <time>2022-02-06T13:53:29+01:00</time>
      </trkpt>
      <trkpt lat="43.14866" lon="6.30149">
        <ele>70</ele>
        <time>2022-02-06T13:53:44+01:00</time>
      </trkpt>
      <trkpt lat="43.14867" lon="6.30115">
        <ele>70</ele>
        <time>2022-02-06T13:54:07+01:00</time>
      </trkpt>
      <trkpt lat="43.1487" lon="6.30084">
        <ele>69</ele>
        <time>2022-02-06T13:54:26+01:00</time>
      </trkpt>
      <trkpt lat="43.14876" lon="6.30053">
        <ele>68</ele>
        <time>2022-02-06T13:54:43+01:00</time>
      </trkpt>
      <trkpt lat="43.14882" lon="6.30028">
        <ele>68</ele>
        <time>2022-02-06T13:54:59+01:00</time>
      </trkpt>
      <trkpt lat="43.14892" lon="6.29993">
        <ele>66</ele>
        <time>2022-02-06T13:55:20+01:00</time>
      </trkpt>
      <trkpt lat="43.14899" lon="6.2997">
        <ele>66</ele>
        <time>2022-02-06T13:55:37+01:00</time>
      </trkpt>
      <trkpt lat="43.14907" lon="6.29942">
        <ele>66</ele>
        <time>2022-02-06T13:55:54+01:00</time>
      </trkpt>
      <trkpt lat="43.1491" lon="6.29926">
        <ele>67</ele>
      </trkpt>
      <trkpt lat="43.14917" lon="6.29907">
        <ele>67</ele>
        <time>2022-02-06T13:56:10+01:00</time>
      </trkpt>
      <trkpt lat="43.1492" lon="6.29893">
        <ele>66</ele>
      </trkpt>
      <trkpt lat="43.14925" lon="6.29877">
        <ele>66</ele>
        <time>2022-02-06T13:56:27+01:00</time>
      </trkpt>
      <trkpt lat="43.14938" lon="6.29847">
        <ele>66</ele>
        <time>2022-02-06T13:56:59+01:00</time>
      </trkpt>
      <trkpt lat="43.14944" lon="6.29818">
        <ele>65</ele>
        <time>2022-02-06T13:57:20+01:00</time>
      </trkpt>
      <trkpt lat="43.14952" lon="6.29788">
        <ele>64</ele>
        <time>2022-02-06T13:57:39+01:00</time>
      </trkpt>
      <trkpt lat="43.1496" lon="6.29757">
        <ele>63</ele>
        <time>2022-02-06T13:57:58+01:00</time>
      </trkpt>
      <trkpt lat="43.14968" lon="6.29728">
        <ele>62</ele>
        <time>2022-02-06T13:58:15+01:00</time>
      </trkpt>
      <trkpt lat="43.14978" lon="6.297">
        <ele>62</ele>
        <time>2022-02-06T13:58:34+01:00</time>
      </trkpt>
      <trkpt lat="43.14985" lon="6.2967">
        <ele>62</ele>
        <time>2022-02-06T13:58:52+01:00</time>
      </trkpt>
      <trkpt lat="43.14988" lon="6.29638">
        <ele>59</ele>
        <time>2022-02-06T13:59:12+01:00</time>
      </trkpt>
      <trkpt lat="43.14985" lon="6.29606">
        <ele>58</ele>
        <time>2022-02-06T13:59:32+01:00</time>
      </trkpt>
      <trkpt lat="43.14982" lon="6.29575">
        <ele>58</ele>
        <time>2022-02-06T13:59:50+01:00</time>
      </trkpt>
      <trkpt lat="43.1498" lon="6.29543">
        <ele>60</ele>
        <time>2022-02-06T14:00:09+01:00</time>
      </trkpt>
      <trkpt lat="43.14976" lon="6.29512">
        <ele>61</ele>
        <time>2022-02-06T14:00:29+01:00</time>
      </trkpt>
      <trkpt lat="43.14975" lon="6.29481">
        <ele>64</ele>
        <time>2022-02-06T14:00:49+01:00</time>
      </trkpt>
      <trkpt lat="43.14972" lon="6.2945">
        <ele>66</ele>
        <time>2022-02-06T14:01:08+01:00</time>
      </trkpt>
      <trkpt lat="43.14968" lon="6.29419">
        <ele>67</ele>
        <time>2022-02-06T14:01:27+01:00</time>
      </trkpt>
      <trkpt lat="43.14967" lon="6.29388">
        <ele>67</ele>
        <time>2022-02-06T14:01:44+01:00</time>
      </trkpt>
    </trkseg>
  </trk>
</gpx>